首页
METAR-TAF:

METAR-TAF

机场 :

Philip Billard Municipal Airport

托皮卡, 堪薩斯州, 美国

纬度: 39-04-21N, 经度: 095-37-33W, 海拔: 268米

当前天气观测

该预报发布于23分钟前的18:53 UTC
风速14节,风向,有时为20节阵风
温度 27°C
湿度 42%
气压 1022 hPa
能見度: 16.1公里
散云层高于4800英尺

METAR: KTOP 221853Z 35014G20KT 10SM SCT048 27/13 A3018 RMK AO2 SLP211 T02720128 $

时间: 14:16 (19:16 UTC)

预报

该预报发布于1小时和56分钟前的17:20 UTC
预报有效从22日的 18点(UTC)到 23日的 18点(UTC)
风速12节,风向
能見度: 10公里
散云层高于4000英尺
从 23日的 0100点(UTC)
风速5节,风向
能見度: 10公里
天空无云

TAF: KTOP 221720Z 2218/2318 01012KT P6SM SCT040 FM230100 35005KT P6SM SKC

超过4000个机场的气象观测和天气预报(METAR&TAF报告)。

可查询的气象台以黄色和红色小点在地图上表示。

将鼠标移到小点上方,可查看气象台名称。

然后点击查看天气观测和预报。

如需切换地图:点击带黑十字的绿色按钮放大地图;点击带横线的绿色按钮缩小地图;或者点击绿色箭头查看邻近地区的地图。


METAR-TAF: